sensor_id;sensor_type;location;lat;lon;timestamp;P1;durP1;ratioP1;P2;durP2;ratioP2
18789;SDS011;9523;42.650;23.386;2023-05-07T00:00:45;7.47;;;4.87;;
18789;SDS011;9523;42.650;23.386;2023-05-07T00:03:12;6.67;;;4.50;;
18789;SDS011;9523;42.650;23.386;2023-05-07T00:05:39;6.97;;;4.50;;
18789;SDS011;9523;42.650;23.386;2023-05-07T00:08:07;5.63;;;4.50;;
18789;SDS011;9523;42.650;23.386;2023-05-07T00:10:33;6.77;;;4.70;;
18789;SDS011;9523;42.650;23.386;2023-05-07T00:13:02;8.03;;;4.50;;
18789;SDS011;9523;42.650;23.386;2023-05-07T00:15:28;6.33;;;4.60;;
18789;SDS011;9523;42.650;23.386;2023-05-07T00:17:55;7.20;;;4.10;;
18789;SDS011;9523;42.650;23.386;2023-05-07T00:20:23;5.13;;;4.40;;
18789;SDS011;9523;42.650;23.386;2023-05-07T00:22:50;5.80;;;4.40;;
18789;SDS011;9523;42.650;23.386;2023-05-07T00:25:17;6.97;;;4.83;;
18789;SDS011;9523;42.650;23.386;2023-05-07T00:27:44;7.23;;;4.57;;
18789;SDS011;9523;42.650;23.386;2023-05-07T00:30:13;6.73;;;4.57;;
18789;SDS011;9523;42.650;23.386;2023-05-07T00:32:40;7.57;;;4.20;;
18789;SDS011;9523;42.650;23.386;2023-05-07T00:35:07;6.10;;;4.87;;
18789;SDS011;9523;42.650;23.386;2023-05-07T00:37:34;6.10;;;4.90;;
18789;SDS011;9523;42.650;23.386;2023-05-07T00:40:01;6.37;;;4.63;;
18789;SDS011;9523;42.650;23.386;2023-05-07T00:42:32;6.10;;;4.80;;
18789;SDS011;9523;42.650;23.386;2023-05-07T00:44:58;5.33;;;4.50;;
18789;SDS011;9523;42.650;23.386;2023-05-07T00:47:27;5.43;;;4.63;;
18789;SDS011;9523;42.650;23.386;2023-05-07T00:49:53;6.53;;;4.93;;
18789;SDS011;9523;42.650;23.386;2023-05-07T00:52:21;7.20;;;5.23;;
18789;SDS011;9523;42.650;23.386;2023-05-07T00:54:50;8.17;;;5.20;;
18789;SDS011;9523;42.650;23.386;2023-05-07T00:57:17;7.03;;;5.27;;
18789;SDS011;9523;42.650;23.386;2023-05-07T00:59:43;8.00;;;5.00;;
18789;SDS011;9523;42.650;23.386;2023-05-07T01:02:10;6.23;;;5.30;;
18789;SDS011;9523;42.650;23.386;2023-05-07T01:04:39;7.43;;;5.07;;
18789;SDS011;9523;42.650;23.386;2023-05-07T01:07:05;9.97;;;5.20;;
18789;SDS011;9523;42.650;23.386;2023-05-07T01:09:32;6.10;;;4.47;;
18789;SDS011;9523;42.650;23.386;2023-05-07T01:12:01;7.63;;;4.33;;
18789;SDS011;9523;42.650;23.386;2023-05-07T01:14:29;6.97;;;5.17;;
18789;SDS011;9523;42.650;23.386;2023-05-07T01:16:58;6.43;;;4.73;;
18789;SDS011;9523;42.650;23.386;2023-05-07T01:19:25;6.33;;;5.20;;
18789;SDS011;9523;42.650;23.386;2023-05-07T01:21:53;7.67;;;5.60;;
18789;SDS011;9523;42.650;23.386;2023-05-07T01:24:29;8.60;;;5.30;;
18789;SDS011;9523;42.650;23.386;2023-05-07T01:26:56;5.90;;;5.00;;
18789;SDS011;9523;42.650;23.386;2023-05-07T01:29:23;7.10;;;5.50;;
18789;SDS011;9523;42.650;23.386;2023-05-07T01:31:50;5.97;;;5.37;;
18789;SDS011;9523;42.650;23.386;2023-05-07T01:34:18;6.50;;;5.53;;
18789;SDS011;9523;42.650;23.386;2023-05-07T01:36:47;7.93;;;5.90;;
18789;SDS011;9523;42.650;23.386;2023-05-07T01:39:15;7.80;;;5.97;;
18789;SDS011;9523;42.650;23.386;2023-05-07T01:41:44;7.60;;;6.17;;
18789;SDS011;9523;42.650;23.386;2023-05-07T01:44:12;7.27;;;5.90;;
18789;SDS011;9523;42.650;23.386;2023-05-07T01:46:39;8.10;;;6.50;;
18789;SDS011;9523;42.650;23.386;2023-05-07T01:49:06;7.90;;;6.10;;
18789;SDS011;9523;42.650;23.386;2023-05-07T01:51:33;8.27;;;6.40;;
18789;SDS011;9523;42.650;23.386;2023-05-07T01:54:00;9.93;;;6.90;;
18789;SDS011;9523;42.650;23.386;2023-05-07T01:56:27;10.10;;;7.03;;
18789;SDS011;9523;42.650;23.386;2023-05-07T01:58:55;9.83;;;6.60;;
18789;SDS011;9523;42.650;23.386;2023-05-07T02:01:22;13.37;;;9.33;;
18789;SDS011;9523;42.650;23.386;2023-05-07T02:03:49;9.90;;;7.27;;
18789;SDS011;9523;42.650;23.386;2023-05-07T02:06:16;9.83;;;8.40;;
18789;SDS011;9523;42.650;23.386;2023-05-07T02:08:42;10.00;;;8.60;;
18789;SDS011;9523;42.650;23.386;2023-05-07T02:11:09;12.37;;;7.60;;
18789;SDS011;9523;42.650;23.386;2023-05-07T02:13:36;12.23;;;8.27;;
18789;SDS011;9523;42.650;23.386;2023-05-07T02:16:05;9.60;;;7.83;;
18789;SDS011;9523;42.650;23.386;2023-05-07T02:18:32;10.17;;;7.83;;
18789;SDS011;9523;42.650;23.386;2023-05-07T02:20:58;13.43;;;8.37;;
18789;SDS011;9523;42.650;23.386;2023-05-07T02:23:25;10.77;;;8.47;;
18789;SDS011;9523;42.650;23.386;2023-05-07T02:25:55;14.83;;;8.37;;
18789;SDS011;9523;42.650;23.386;2023-05-07T02:28:22;13.43;;;8.83;;
18789;SDS011;9523;42.650;23.386;2023-05-07T02:30:49;13.40;;;9.10;;
18789;SDS011;9523;42.650;23.386;2023-05-07T02:33:17;14.10;;;9.47;;
18789;SDS011;9523;42.650;23.386;2023-05-07T02:35:44;12.20;;;9.23;;
18789;SDS011;9523;42.650;23.386;2023-05-07T02:38:10;12.17;;;9.20;;
18789;SDS011;9523;42.650;23.386;2023-05-07T02:40:37;12.23;;;10.27;;
18789;SDS011;9523;42.650;23.386;2023-05-07T02:43:05;11.60;;;9.20;;
18789;SDS011;9523;42.650;23.386;2023-05-07T02:45:31;13.60;;;9.37;;
18789;SDS011;9523;42.650;23.386;2023-05-07T02:47:58;12.20;;;9.63;;
18789;SDS011;9523;42.650;23.386;2023-05-07T02:50:26;12.70;;;9.80;;
18789;SDS011;9523;42.650;23.386;2023-05-07T02:52:53;13.63;;;9.33;;
18789;SDS011;9523;42.650;23.386;2023-05-07T02:55:20;12.57;;;9.30;;
18789;SDS011;9523;42.650;23.386;2023-05-07T02:57:47;14.00;;;9.83;;
18789;SDS011;9523;42.650;23.386;2023-05-07T03:00:14;12.07;;;8.83;;
18789;SDS011;9523;42.650;23.386;2023-05-07T03:02:42;12.83;;;8.87;;
18789;SDS011;9523;42.650;23.386;2023-05-07T03:05:09;13.53;;;10.30;;
18789;SDS011;9523;42.650;23.386;2023-05-07T03:07:38;16.30;;;10.37;;
18789;SDS011;9523;42.650;23.386;2023-05-07T03:10:06;14.03;;;9.97;;
18789;SDS011;9523;42.650;23.386;2023-05-07T03:12:33;14.60;;;9.63;;
18789;SDS011;9523;42.650;23.386;2023-05-07T03:15:00;13.53;;;10.33;;
18789;SDS011;9523;42.650;23.386;2023-05-07T03:17:27;13.83;;;10.53;;
18789;SDS011;9523;42.650;23.386;2023-05-07T03:19:53;13.63;;;10.57;;
18789;SDS011;9523;42.650;23.386;2023-05-07T03:22:20;17.43;;;12.20;;
18789;SDS011;9523;42.650;23.386;2023-05-07T03:24:48;16.00;;;11.37;;
18789;SDS011;9523;42.650;23.386;2023-05-07T03:27:15;14.77;;;11.80;;
18789;SDS011;9523;42.650;23.386;2023-05-07T03:29:42;14.97;;;11.23;;
18789;SDS011;9523;42.650;23.386;2023-05-07T03:32:09;16.60;;;12.17;;
18789;SDS011;9523;42.650;23.386;2023-05-07T03:34:35;16.77;;;12.13;;
18789;SDS011;9523;42.650;23.386;2023-05-07T03:37:02;20.40;;;12.00;;
18789;SDS011;9523;42.650;23.386;2023-05-07T03:39:29;18.73;;;12.87;;
18789;SDS011;9523;42.650;23.386;2023-05-07T03:41:58;17.07;;;12.43;;
18789;SDS011;9523;42.650;23.386;2023-05-07T03:44:25;18.90;;;12.63;;
18789;SDS011;9523;42.650;23.386;2023-05-07T03:46:52;20.73;;;13.33;;
18789;SDS011;9523;42.650;23.386;2023-05-07T03:49:19;21.17;;;13.23;;
18789;SDS011;9523;42.650;23.386;2023-05-07T03:51:46;18.83;;;13.33;;
18789;SDS011;9523;42.650;23.386;2023-05-07T03:54:13;19.73;;;13.27;;
18789;SDS011;9523;42.650;23.386;2023-05-07T03:56:39;21.53;;;14.30;;
18789;SDS011;9523;42.650;23.386;2023-05-07T03:59:07;20.83;;;14.20;;
18789;SDS011;9523;42.650;23.386;2023-05-07T04:01:34;19.33;;;13.67;;
18789;SDS011;9523;42.650;23.386;2023-05-07T04:04:01;19.03;;;13.33;;
18789;SDS011;9523;42.650;23.386;2023-05-07T04:06:28;21.53;;;14.30;;
18789;SDS011;9523;42.650;23.386;2023-05-07T04:08:55;21.30;;;13.70;;
18789;SDS011;9523;42.650;23.386;2023-05-07T04:11:22;21.80;;;14.10;;
18789;SDS011;9523;42.650;23.386;2023-05-07T04:13:49;20.43;;;13.23;;
18789;SDS011;9523;42.650;23.386;2023-05-07T04:16:17;21.60;;;14.50;;
18789;SDS011;9523;42.650;23.386;2023-05-07T04:18:44;21.47;;;14.47;;
18789;SDS011;9523;42.650;23.386;2023-05-07T04:21:13;22.23;;;14.80;;
18789;SDS011;9523;42.650;23.386;2023-05-07T04:23:41;24.87;;;14.57;;
18789;SDS011;9523;42.650;23.386;2023-05-07T04:26:08;20.63;;;14.00;;
18789;SDS011;9523;42.650;23.386;2023-05-07T04:28:35;20.57;;;13.70;;
18789;SDS011;9523;42.650;23.386;2023-05-07T04:31:02;20.83;;;13.57;;
18789;SDS011;9523;42.650;23.386;2023-05-07T04:33:31;19.53;;;13.07;;
18789;SDS011;9523;42.650;23.386;2023-05-07T04:35:58;19.00;;;12.80;;
18789;SDS011;9523;42.650;23.386;2023-05-07T04:38:27;21.13;;;14.10;;
18789;SDS011;9523;42.650;23.386;2023-05-07T04:40:55;19.77;;;13.50;;
18789;SDS011;9523;42.650;23.386;2023-05-07T04:43:22;16.60;;;12.77;;
18789;SDS011;9523;42.650;23.386;2023-05-07T04:45:49;19.53;;;13.30;;
18789;SDS011;9523;42.650;23.386;2023-05-07T04:48:17;19.67;;;13.83;;
18789;SDS011;9523;42.650;23.386;2023-05-07T04:50:48;19.13;;;13.67;;
18789;SDS011;9523;42.650;23.386;2023-05-07T04:53:15;18.03;;;12.60;;
18789;SDS011;9523;42.650;23.386;2023-05-07T04:55:42;20.27;;;13.50;;
18789;SDS011;9523;42.650;23.386;2023-05-07T04:58:10;18.63;;;13.10;;
18789;SDS011;9523;42.650;23.386;2023-05-07T05:00:37;18.03;;;12.53;;
18789;SDS011;9523;42.650;23.386;2023-05-07T05:03:04;20.73;;;13.47;;
18789;SDS011;9523;42.650;23.386;2023-05-07T05:05:31;19.23;;;13.00;;
18789;SDS011;9523;42.650;23.386;2023-05-07T05:07:59;18.77;;;13.23;;
18789;SDS011;9523;42.650;23.386;2023-05-07T05:10:26;21.60;;;13.00;;
18789;SDS011;9523;42.650;23.386;2023-05-07T05:12:53;17.23;;;12.27;;
18789;SDS011;9523;42.650;23.386;2023-05-07T05:15:20;19.03;;;13.70;;
18789;SDS011;9523;42.650;23.386;2023-05-07T05:17:46;19.87;;;14.03;;
18789;SDS011;9523;42.650;23.386;2023-05-07T05:20:13;19.40;;;13.60;;
18789;SDS011;9523;42.650;23.386;2023-05-07T05:22:40;18.83;;;13.40;;
18789;SDS011;9523;42.650;23.386;2023-05-07T05:25:09;16.93;;;12.90;;
18789;SDS011;9523;42.650;23.386;2023-05-07T05:27:36;18.87;;;13.50;;
18789;SDS011;9523;42.650;23.386;2023-05-07T05:30:03;20.33;;;13.20;;
18789;SDS011;9523;42.650;23.386;2023-05-07T05:32:31;21.80;;;13.53;;
18789;SDS011;9523;42.650;23.386;2023-05-07T05:34:58;18.67;;;13.17;;
18789;SDS011;9523;42.650;23.386;2023-05-07T05:37:25;19.73;;;12.60;;
18789;SDS011;9523;42.650;23.386;2023-05-07T05:39:52;17.73;;;13.00;;
18789;SDS011;9523;42.650;23.386;2023-05-07T05:42:21;17.50;;;12.67;;
18789;SDS011;9523;42.650;23.386;2023-05-07T05:44:48;21.03;;;12.97;;
18789;SDS011;9523;42.650;23.386;2023-05-07T05:47:14;16.03;;;12.30;;
18789;SDS011;9523;42.650;23.386;2023-05-07T05:49:41;19.10;;;12.30;;
18789;SDS011;9523;42.650;23.386;2023-05-07T05:52:08;19.13;;;12.97;;
18789;SDS011;9523;42.650;23.386;2023-05-07T05:54:35;22.63;;;14.00;;
18789;SDS011;9523;42.650;23.386;2023-05-07T05:57:02;20.87;;;13.43;;
18789;SDS011;9523;42.650;23.386;2023-05-07T05:59:32;20.03;;;12.60;;
18789;SDS011;9523;42.650;23.386;2023-05-07T06:01:59;18.80;;;12.27;;
18789;SDS011;9523;42.650;23.386;2023-05-07T06:04:26;17.47;;;12.40;;
18789;SDS011;9523;42.650;23.386;2023-05-07T06:06:52;17.57;;;11.87;;
18789;SDS011;9523;42.650;23.386;2023-05-07T06:09:19;17.17;;;11.83;;
18789;SDS011;9523;42.650;23.386;2023-05-07T06:11:46;19.73;;;12.57;;
18789;SDS011;9523;42.650;23.386;2023-05-07T06:14:13;18.30;;;12.47;;
18789;SDS011;9523;42.650;23.386;2023-05-07T06:16:41;22.73;;;12.10;;
18789;SDS011;9523;42.650;23.386;2023-05-07T06:19:08;17.10;;;13.00;;
18789;SDS011;9523;42.650;23.386;2023-05-07T06:21:35;17.23;;;12.03;;
18789;SDS011;9523;42.650;23.386;2023-05-07T06:24:02;18.63;;;12.00;;
18789;SDS011;9523;42.650;23.386;2023-05-07T06:26:35;20.70;;;11.83;;
18789;SDS011;9523;42.650;23.386;2023-05-07T06:29:02;19.50;;;13.97;;
18789;SDS011;9523;42.650;23.386;2023-05-07T06:31:29;21.83;;;13.77;;
18789;SDS011;9523;42.650;23.386;2023-05-07T06:33:58;32.87;;;21.17;;
18789;SDS011;9523;42.650;23.386;2023-05-07T06:36:27;19.13;;;14.80;;
18789;SDS011;9523;42.650;23.386;2023-05-07T06:38:54;55.60;;;38.27;;
18789;SDS011;9523;42.650;23.386;2023-05-07T06:41:21;19.13;;;13.60;;
18789;SDS011;9523;42.650;23.386;2023-05-07T06:43:47;16.13;;;11.40;;
18789;SDS011;9523;42.650;23.386;2023-05-07T06:46:14;17.50;;;11.33;;
18789;SDS011;9523;42.650;23.386;2023-05-07T06:48:41;16.27;;;12.03;;
18789;SDS011;9523;42.650;23.386;2023-05-07T06:51:09;16.47;;;11.30;;
18789;SDS011;9523;42.650;23.386;2023-05-07T06:53:36;16.80;;;11.10;;
18789;SDS011;9523;42.650;23.386;2023-05-07T06:56:03;18.03;;;13.70;;
18789;SDS011;9523;42.650;23.386;2023-05-07T06:58:30;17.70;;;11.93;;
18789;SDS011;9523;42.650;23.386;2023-05-07T07:00:57;17.37;;;11.70;;
18789;SDS011;9523;42.650;23.386;2023-05-07T07:03:24;17.23;;;11.73;;
18789;SDS011;9523;42.650;23.386;2023-05-07T07:05:51;16.00;;;11.30;;
18789;SDS011;9523;42.650;23.386;2023-05-07T07:08:19;16.20;;;11.00;;
18789;SDS011;9523;42.650;23.386;2023-05-07T07:10:47;23.03;;;13.63;;
18789;SDS011;9523;42.650;23.386;2023-05-07T07:13:17;24.17;;;15.37;;
18789;SDS011;9523;42.650;23.386;2023-05-07T07:15:44;21.17;;;12.63;;
18789;SDS011;9523;42.650;23.386;2023-05-07T07:18:11;30.27;;;18.43;;
18789;SDS011;9523;42.650;23.386;2023-05-07T07:20:38;15.93;;;10.10;;
18789;SDS011;9523;42.650;23.386;2023-05-07T07:23:04;17.37;;;11.10;;
18789;SDS011;9523;42.650;23.386;2023-05-07T07:25:33;19.37;;;13.07;;
18789;SDS011;9523;42.650;23.386;2023-05-07T07:27:59;23.27;;;18.07;;
18789;SDS011;9523;42.650;23.386;2023-05-07T07:30:26;14.63;;;10.40;;
18789;SDS011;9523;42.650;23.386;2023-05-07T07:32:53;16.10;;;10.53;;
18789;SDS011;9523;42.650;23.386;2023-05-07T07:35:23;15.43;;;9.67;;
18789;SDS011;9523;42.650;23.386;2023-05-07T07:37:50;14.50;;;9.97;;
18789;SDS011;9523;42.650;23.386;2023-05-07T07:40:17;15.87;;;9.30;;
18789;SDS011;9523;42.650;23.386;2023-05-07T07:42:45;13.23;;;9.80;;
18789;SDS011;9523;42.650;23.386;2023-05-07T07:45:11;15.63;;;10.37;;
18789;SDS011;9523;42.650;23.386;2023-05-07T07:47:39;21.00;;;12.10;;
18789;SDS011;9523;42.650;23.386;2023-05-07T07:50:06;16.67;;;11.87;;
18789;SDS011;9523;42.650;23.386;2023-05-07T07:52:34;17.77;;;12.20;;
18789;SDS011;9523;42.650;23.386;2023-05-07T07:55:01;14.47;;;11.03;;
18789;SDS011;9523;42.650;23.386;2023-05-07T07:57:28;12.87;;;9.13;;
18789;SDS011;9523;42.650;23.386;2023-05-07T07:59:58;14.73;;;10.17;;
18789;SDS011;9523;42.650;23.386;2023-05-07T08:02:25;14.50;;;9.97;;
18789;SDS011;9523;42.650;23.386;2023-05-07T08:04:52;10.87;;;8.47;;
18789;SDS011;9523;42.650;23.386;2023-05-07T08:07:19;14.17;;;10.80;;
18789;SDS011;9523;42.650;23.386;2023-05-07T08:09:49;16.23;;;9.50;;
18789;SDS011;9523;42.650;23.386;2023-05-07T08:12:16;11.43;;;8.67;;
18789;SDS011;9523;42.650;23.386;2023-05-07T08:14:43;15.07;;;9.23;;
18789;SDS011;9523;42.650;23.386;2023-05-07T08:17:11;12.30;;;9.27;;
18789;SDS011;9523;42.650;23.386;2023-05-07T08:19:40;18.33;;;9.50;;
18789;SDS011;9523;42.650;23.386;2023-05-07T08:22:07;15.50;;;9.73;;
18789;SDS011;9523;42.650;23.386;2023-05-07T08:24:34;11.00;;;8.40;;
18789;SDS011;9523;42.650;23.386;2023-05-07T08:27:04;10.07;;;7.87;;
18789;SDS011;9523;42.650;23.386;2023-05-07T08:29:31;11.23;;;8.33;;
18789;SDS011;9523;42.650;23.386;2023-05-07T08:31:58;10.43;;;8.00;;
18789;SDS011;9523;42.650;23.386;2023-05-07T08:34:26;10.30;;;7.53;;
18789;SDS011;9523;42.650;23.386;2023-05-07T08:36:53;12.43;;;9.00;;
18789;SDS011;9523;42.650;23.386;2023-05-07T08:39:20;10.85;;;8.82;;
18789;SDS011;9523;42.650;23.386;2023-05-07T08:41:47;10.35;;;8.60;;
18789;SDS011;9523;42.650;23.386;2023-05-07T08:44:14;12.80;;;8.98;;
18789;SDS011;9523;42.650;23.386;2023-05-07T08:46:44;13.18;;;8.82;;
18789;SDS011;9523;42.650;23.386;2023-05-07T08:49:13;12.57;;;8.50;;
18789;SDS011;9523;42.650;23.386;2023-05-07T08:51:42;13.65;;;10.70;;
18789;SDS011;9523;42.650;23.386;2023-05-07T08:54:09;11.85;;;9.18;;
18789;SDS011;9523;42.650;23.386;2023-05-07T08:56:37;12.40;;;9.70;;
18789;SDS011;9523;42.650;23.386;2023-05-07T08:59:08;8.85;;;7.20;;
18789;SDS011;9523;42.650;23.386;2023-05-07T09:01:35;11.38;;;7.13;;
18789;SDS011;9523;42.650;23.386;2023-05-07T09:04:01;5.35;;;4.03;;
18789;SDS011;9523;42.650;23.386;2023-05-07T09:06:28;5.25;;;3.50;;
18789;SDS011;9523;42.650;23.386;2023-05-07T09:08:56;6.93;;;4.50;;
18789;SDS011;9523;42.650;23.386;2023-05-07T09:11:26;7.82;;;4.65;;
18789;SDS011;9523;42.650;23.386;2023-05-07T09:13:53;7.18;;;5.13;;
18789;SDS011;9523;42.650;23.386;2023-05-07T09:16:21;6.28;;;4.30;;
18789;SDS011;9523;42.650;23.386;2023-05-07T09:18:50;6.22;;;4.63;;
18789;SDS011;9523;42.650;23.386;2023-05-07T09:21:19;5.57;;;5.00;;
18789;SDS011;9523;42.650;23.386;2023-05-07T09:23:47;5.78;;;5.00;;
18789;SDS011;9523;42.650;23.386;2023-05-07T09:26:17;5.65;;;4.75;;
18789;SDS011;9523;42.650;23.386;2023-05-07T09:28:47;9.57;;;6.68;;
18789;SDS011;9523;42.650;23.386;2023-05-07T09:31:13;10.02;;;4.93;;
18789;SDS011;9523;42.650;23.386;2023-05-07T09:33:40;6.30;;;5.07;;
18789;SDS011;9523;42.650;23.386;2023-05-07T09:36:08;6.35;;;4.90;;
18789;SDS011;9523;42.650;23.386;2023-05-07T09:38:36;6.25;;;4.30;;
18789;SDS011;9523;42.650;23.386;2023-05-07T09:41:04;6.93;;;4.05;;
18789;SDS011;9523;42.650;23.386;2023-05-07T09:43:33;5.05;;;4.10;;
18789;SDS011;9523;42.650;23.386;2023-05-07T09:46:02;6.13;;;4.10;;
18789;SDS011;9523;42.650;23.386;2023-05-07T09:48:29;5.95;;;3.72;;
18789;SDS011;9523;42.650;23.386;2023-05-07T09:50:57;4.60;;;4.05;;
18789;SDS011;9523;42.650;23.386;2023-05-07T09:53:29;7.65;;;5.28;;
18789;SDS011;9523;42.650;23.386;2023-05-07T09:55:57;7.05;;;3.55;;
18789;SDS011;9523;42.650;23.386;2023-05-07T09:58:25;5.43;;;3.80;;
18789;SDS011;9523;42.650;23.386;2023-05-07T10:00:57;5.20;;;3.50;;
18789;SDS011;9523;42.650;23.386;2023-05-07T10:03:28;4.82;;;3.55;;
18789;SDS011;9523;42.650;23.386;2023-05-07T10:06:02;18.48;;;12.77;;
18789;SDS011;9523;42.650;23.386;2023-05-07T10:08:30;8.23;;;5.30;;
18789;SDS011;9523;42.650;23.386;2023-05-07T10:10:58;11.18;;;5.32;;
18789;SDS011;9523;42.650;23.386;2023-05-07T10:13:26;5.75;;;4.00;;
18789;SDS011;9523;42.650;23.386;2023-05-07T10:15:53;9.68;;;4.97;;
18789;SDS011;9523;42.650;23.386;2023-05-07T10:18:23;5.63;;;4.55;;
18789;SDS011;9523;42.650;23.386;2023-05-07T10:20:54;8.15;;;5.78;;
18789;SDS011;9523;42.650;23.386;2023-05-07T10:23:28;10.35;;;7.22;;
18789;SDS011;9523;42.650;23.386;2023-05-07T10:25:57;9.35;;;5.03;;
18789;SDS011;9523;42.650;23.386;2023-05-07T10:28:28;6.18;;;4.13;;
18789;SDS011;9523;42.650;23.386;2023-05-07T10:31:03;7.60;;;3.88;;
18789;SDS011;9523;42.650;23.386;2023-05-07T10:33:46;6.57;;;4.00;;
18789;SDS011;9523;42.650;23.386;2023-05-07T10:36:16;5.03;;;3.60;;
18789;SDS011;9523;42.650;23.386;2023-05-07T10:38:44;4.95;;;3.40;;
18789;SDS011;9523;42.650;23.386;2023-05-07T10:41:11;14.68;;;5.00;;
18789;SDS011;9523;42.650;23.386;2023-05-07T10:43:40;4.43;;;3.63;;
18789;SDS011;9523;42.650;23.386;2023-05-07T10:46:15;6.20;;;5.00;;
18789;SDS011;9523;42.650;23.386;2023-05-07T10:51:40;4.95;;;4.20;;
18789;SDS011;9523;42.650;23.386;2023-05-07T10:54:19;7.22;;;4.82;;
18789;SDS011;9523;42.650;23.386;2023-05-07T10:56:48;5.13;;;3.63;;
18789;SDS011;9523;42.650;23.386;2023-05-07T10:59:35;5.45;;;4.45;;
18789;SDS011;9523;42.650;23.386;2023-05-07T11:02:07;5.68;;;4.60;;
18789;SDS011;9523;42.650;23.386;2023-05-07T11:04:37;5.82;;;3.60;;
18789;SDS011;9523;42.650;23.386;2023-05-07T11:10:02;5.25;;;4.40;;
18789;SDS011;9523;42.650;23.386;2023-05-07T11:12:46;6.20;;;3.90;;
18789;SDS011;9523;42.650;23.386;2023-05-07T11:18:15;4.38;;;3.95;;
18789;SDS011;9523;42.650;23.386;2023-05-07T11:20:54;4.88;;;3.70;;
18789;SDS011;9523;42.650;23.386;2023-05-07T11:26:25;6.72;;;4.20;;
18789;SDS011;9523;42.650;23.386;2023-05-07T11:28:53;4.78;;;4.25;;
18789;SDS011;9523;42.650;23.386;2023-05-07T11:31:22;4.75;;;3.97;;
18789;SDS011;9523;42.650;23.386;2023-05-07T11:33:51;14.55;;;5.43;;
18789;SDS011;9523;42.650;23.386;2023-05-07T11:36:20;91.85;;;48.47;;
18789;SDS011;9523;42.650;23.386;2023-05-07T11:38:48;13.98;;;8.07;;
18789;SDS011;9523;42.650;23.386;2023-05-07T11:41:15;9.57;;;4.95;;
18789;SDS011;9523;42.650;23.386;2023-05-07T11:43:57;9.80;;;6.53;;
18789;SDS011;9523;42.650;23.386;2023-05-07T11:46:26;7.13;;;4.15;;
18789;SDS011;9523;42.650;23.386;2023-05-07T11:48:53;5.15;;;4.53;;
18789;SDS011;9523;42.650;23.386;2023-05-07T11:51:22;12.95;;;7.93;;
18789;SDS011;9523;42.650;23.386;2023-05-07T11:53:51;15.57;;;12.25;;
18789;SDS011;9523;42.650;23.386;2023-05-07T11:56:18;11.25;;;6.75;;
18789;SDS011;9523;42.650;23.386;2023-05-07T11:58:45;8.63;;;4.57;;
18789;SDS011;9523;42.650;23.386;2023-05-07T12:01:13;6.13;;;3.40;;
18789;SDS011;9523;42.650;23.386;2023-05-07T12:03:41;6.38;;;3.75;;
18789;SDS011;9523;42.650;23.386;2023-05-07T12:06:09;4.75;;;3.47;;
18789;SDS011;9523;42.650;23.386;2023-05-07T12:08:38;3.88;;;3.40;;
18789;SDS011;9523;42.650;23.386;2023-05-07T12:11:06;5.32;;;3.63;;
18789;SDS011;9523;42.650;23.386;2023-05-07T12:13:34;4.30;;;3.90;;
18789;SDS011;9523;42.650;23.386;2023-05-07T12:16:01;4.68;;;3.47;;
18789;SDS011;9523;42.650;23.386;2023-05-07T12:18:29;5.10;;;4.00;;
18789;SDS011;9523;42.650;23.386;2023-05-07T12:20:56;3.70;;;3.40;;
18789;SDS011;9523;42.650;23.386;2023-05-07T12:23:25;3.72;;;3.40;;
18789;SDS011;9523;42.650;23.386;2023-05-07T12:25:53;5.47;;;3.75;;
18789;SDS011;9523;42.650;23.386;2023-05-07T12:28:20;6.40;;;4.35;;
18789;SDS011;9523;42.650;23.386;2023-05-07T12:30:47;4.05;;;3.33;;
18789;SDS011;9523;42.650;23.386;2023-05-07T12:33:17;4.32;;;3.47;;
18789;SDS011;9523;42.650;23.386;2023-05-07T12:35:47;6.00;;;3.70;;
18789;SDS011;9523;42.650;23.386;2023-05-07T12:38:15;5.93;;;3.70;;
18789;SDS011;9523;42.650;23.386;2023-05-07T12:40:45;5.75;;;4.53;;
18789;SDS011;9523;42.650;23.386;2023-05-07T12:43:17;8.02;;;3.58;;
18789;SDS011;9523;42.650;23.386;2023-05-07T12:45:44;4.13;;;3.67;;
18789;SDS011;9523;42.650;23.386;2023-05-07T12:48:12;3.38;;;3.03;;
18789;SDS011;9523;42.650;23.386;2023-05-07T12:50:39;4.25;;;3.67;;
18789;SDS011;9523;42.650;23.386;2023-05-07T12:53:06;3.50;;;3.20;;
18789;SDS011;9523;42.650;23.386;2023-05-07T12:55:43;3.53;;;3.22;;
18789;SDS011;9523;42.650;23.386;2023-05-07T12:58:16;3.45;;;3.08;;
18789;SDS011;9523;42.650;23.386;2023-05-07T13:00:45;5.10;;;3.53;;
18789;SDS011;9523;42.650;23.386;2023-05-07T13:03:20;3.83;;;3.47;;
18789;SDS011;9523;42.650;23.386;2023-05-07T13:05:48;4.10;;;2.80;;
18789;SDS011;9523;42.650;23.386;2023-05-07T13:08:23;4.28;;;3.50;;
18789;SDS011;9523;42.650;23.386;2023-05-07T13:10:50;4.65;;;3.53;;
18789;SDS011;9523;42.650;23.386;2023-05-07T13:13:19;4.43;;;3.40;;
18789;SDS011;9523;42.650;23.386;2023-05-07T13:15:46;3.42;;;3.13;;
18789;SDS011;9523;42.650;23.386;2023-05-07T13:18:13;5.50;;;2.88;;
18789;SDS011;9523;42.650;23.386;2023-05-07T13:20:39;6.20;;;2.88;;
18789;SDS011;9523;42.650;23.386;2023-05-07T13:23:06;4.75;;;2.60;;
18789;SDS011;9523;42.650;23.386;2023-05-07T13:25:33;3.35;;;2.30;;
18789;SDS011;9523;42.650;23.386;2023-05-07T13:28:00;3.28;;;2.47;;
18789;SDS011;9523;42.650;23.386;2023-05-07T13:30:29;2.97;;;2.72;;
18789;SDS011;9523;42.650;23.386;2023-05-07T13:32:56;3.20;;;2.85;;
18789;SDS011;9523;42.650;23.386;2023-05-07T13:35:22;3.67;;;3.33;;
18789;SDS011;9523;42.650;23.386;2023-05-07T13:37:49;5.72;;;2.90;;
18789;SDS011;9523;42.650;23.386;2023-05-07T13:40:17;3.13;;;2.65;;
18789;SDS011;9523;42.650;23.386;2023-05-07T13:42:44;4.53;;;3.10;;
18789;SDS011;9523;42.650;23.386;2023-05-07T13:45:11;6.63;;;3.08;;
18789;SDS011;9523;42.650;23.386;2023-05-07T13:47:40;4.95;;;2.50;;
18789;SDS011;9523;42.650;23.386;2023-05-07T13:50:07;7.80;;;2.80;;
18789;SDS011;9523;42.650;23.386;2023-05-07T13:52:36;6.18;;;4.55;;
18789;SDS011;9523;42.650;23.386;2023-05-07T13:55:05;4.18;;;2.83;;
18789;SDS011;9523;42.650;23.386;2023-05-07T13:57:33;4.93;;;3.10;;
18789;SDS011;9523;42.650;23.386;2023-05-07T13:59:59;10.15;;;3.10;;
18789;SDS011;9523;42.650;23.386;2023-05-07T14:02:26;4.25;;;3.00;;
18789;SDS011;9523;42.650;23.386;2023-05-07T14:04:54;2.65;;;2.30;;
18789;SDS011;9523;42.650;23.386;2023-05-07T14:07:21;4.63;;;2.80;;
18789;SDS011;9523;42.650;23.386;2023-05-07T14:09:48;6.13;;;3.10;;
18789;SDS011;9523;42.650;23.386;2023-05-07T14:12:15;121.60;;;14.02;;
18789;SDS011;9523;42.650;23.386;2023-05-07T14:14:42;36.97;;;6.28;;
18789;SDS011;9523;42.650;23.386;2023-05-07T14:17:08;11.18;;;3.13;;
18789;SDS011;9523;42.650;23.386;2023-05-07T14:19:35;4.68;;;3.13;;
18789;SDS011;9523;42.650;23.386;2023-05-07T14:22:03;4.85;;;3.13;;
18789;SDS011;9523;42.650;23.386;2023-05-07T14:24:30;4.00;;;2.70;;
18789;SDS011;9523;42.650;23.386;2023-05-07T14:26:57;5.05;;;2.75;;
18789;SDS011;9523;42.650;23.386;2023-05-07T14:29:24;4.78;;;2.85;;
18789;SDS011;9523;42.650;23.386;2023-05-07T14:31:50;5.70;;;4.45;;
18789;SDS011;9523;42.650;23.386;2023-05-07T14:34:17;24.70;;;7.25;;
18789;SDS011;9523;42.650;23.386;2023-05-07T14:36:44;14.48;;;6.80;;
18789;SDS011;9523;42.650;23.386;2023-05-07T14:39:12;10.27;;;5.40;;
18789;SDS011;9523;42.650;23.386;2023-05-07T14:41:39;26.48;;;16.63;;
18789;SDS011;9523;42.650;23.386;2023-05-07T14:44:06;15.60;;;9.68;;
18789;SDS011;9523;42.650;23.386;2023-05-07T14:46:33;4.28;;;3.28;;
18789;SDS011;9523;42.650;23.386;2023-05-07T14:49:00;12.90;;;7.88;;
18789;SDS011;9523;42.650;23.386;2023-05-07T14:51:28;27.73;;;17.85;;